Time;durP1;ratioP1;P1;durP2;ratioP2;P2;SDS_P1;SDS_P2;PMS_P1;PMS_P2;Temp;Humidity;BMP_temperature;BMP_pressure;BME280_temperature;BME280_humidity;BME280_pressure;Samples;Min_cycle;Max_cycle;Signal;HPM_P1;HPM_P2
2023/08/29 00:00:41;;;;;;;24.60;18.02;;;21.70;99.90;;;;;;5114974;28;20439;-66
2023/08/29 00:03:07;;;;;;;25.02;17.02;;;21.80;99.90;;;;;;5114802;28;20535;-65
2023/08/29 00:05:33;;;;;;;27.20;18.15;;;21.70;99.90;;;;;;5114621;28;20028;-65
2023/08/29 00:07:59;;;;;;;26.95;19.20;;;21.40;99.90;;;;;;5115036;28;20286;-65
2023/08/29 00:10:25;;;;;;;28.80;18.77;;;21.50;99.90;;;;;;5114842;28;20027;-65
2023/08/29 00:12:52;;;;;;;24.42;19.58;;;21.60;99.90;;;;;;5114431;28;20377;-65
2023/08/29 00:15:18;;;;;;;24.20;17.60;;;21.60;99.90;;;;;;5114607;28;20027;-65
2023/08/29 00:17:44;;;;;;;22.85;17.00;;;21.50;99.90;;;;;;5114714;28;20026;-66
2023/08/29 00:20:10;;;;;;;27.60;16.13;;;21.20;99.90;;;;;;5114724;28;20350;-66
2023/08/29 00:22:36;;;;;;;28.42;17.48;;;21.10;99.90;;;;;;5114907;28;20449;-65
2023/08/29 00:25:02;;;;;;;25.67;18.00;;;21.20;99.90;;;;;;5114661;28;20027;-65
2023/08/29 00:27:28;;;;;;;26.38;16.63;;;21.00;99.90;;;;;;5114456;28;20024;-65
2023/08/29 00:29:54;;;;;;;24.77;18.52;;;21.00;99.90;;;;;;5114620;28;20035;-66
2023/08/29 00:32:20;;;;;;;33.17;19.30;;;21.20;99.90;;;;;;5114581;28;20024;-65
2023/08/29 00:34:46;;;;;;;32.33;17.25;;;21.20;99.90;;;;;;5114495;28;20028;-65
2023/08/29 00:37:12;;;;;;;25.45;14.57;;;21.30;99.90;;;;;;5079393;28;20106;-65
2023/08/29 00:39:38;;;;;;;24.60;16.48;;;21.30;99.90;;;;;;5114716;28;20023;-66
2023/08/29 00:42:04;;;;;;;21.42;15.73;;;21.20;99.90;;;;;;5096031;28;20131;-66
2023/08/29 00:44:30;;;;;;;21.95;14.70;;;21.00;99.90;;;;;;5096214;28;20058;-66
2023/08/29 00:46:57;;;;;;;24.55;15.68;;;20.80;99.90;;;;;;5096355;28;20027;-66
2023/08/29 00:49:26;;;;;;;21.95;15.95;;;20.80;99.90;;;;;;5096178;28;20040;-65
2023/08/29 00:51:53;;;;;;;24.85;17.13;;;20.80;99.90;;;;;;5114105;28;20032;-66
2023/08/29 00:54:21;;;;;;;24.88;17.30;;;20.80;99.90;;;;;;5114527;28;20085;-66
2023/08/29 00:56:48;;;;;;;32.05;18.73;;;20.30;99.90;;;;;;5114240;28;20069;-66
2023/08/29 00:59:14;;;;;;;29.20;18.35;;;20.40;99.90;;;;;;5096971;28;20023;-66
2023/08/29 01:01:40;;;;;;;31.48;19.40;;;20.50;99.90;;;;;;5118221;28;20412;-66
2023/08/29 01:04:09;;;;;;;29.70;19.02;;;20.50;99.90;;;;;;5117961;28;20024;-66
2023/08/29 01:06:35;;;;;;;26.67;18.45;;;20.50;99.90;;;;;;5117901;28;20027;-66
2023/08/29 01:09:03;;;;;;;33.67;19.38;;;20.50;99.90;;;;;;5117714;28;20039;-66
2023/08/29 01:11:34;;;;;;;28.17;19.30;;;20.40;99.90;;;;;;5117709;28;20027;-66
2023/08/29 01:14:15;;;;;;;29.88;19.83;;;20.50;99.90;;;;;;5117910;28;20028;-66
2023/08/29 01:16:52;;;;;;;28.73;20.15;;;20.40;99.90;;;;;;5099411;28;20397;-66
2023/08/29 01:19:23;;;;;;;34.10;20.48;;;20.30;99.90;;;;;;5117645;28;20031;-66
2023/08/29 01:22:16;;;;;;;41.35;24.33;;;20.30;99.90;;;;;;5099301;28;20028;-66
2023/08/29 01:24:53;;;;;;;29.58;19.70;;;20.50;99.90;;;;;;5117596;28;20054;-66
2023/08/29 01:27:20;;;;;;;30.83;21.25;;;20.50;99.90;;;;;;5099095;28;20039;-66
2023/08/29 01:29:46;;;;;;;31.33;20.65;;;20.40;99.90;;;;;;5117483;28;20019;-66
2023/08/29 01:32:14;;;;;;;36.22;22.55;;;20.50;99.90;;;;;;5099031;28;20046;-66
2023/08/29 01:34:43;;;;;;;33.30;21.90;;;20.50;99.90;;;;;;5099108;28;20023;-66
2023/08/29 01:37:09;;;;;;;33.70;22.30;;;20.60;99.90;;;;;;5099149;28;20027;-66
2023/08/29 01:39:36;;;;;;;30.20;20.80;;;20.60;99.90;;;;;;5117074;28;20446;-66
2023/08/29 01:42:03;;;;;;;34.90;20.98;;;20.60;99.90;;;;;;5098983;28;20435;-66
2023/08/29 01:44:28;;;;;;;32.38;21.48;;;20.70;99.90;;;;;;5117441;28;20031;-66
2023/08/29 01:46:54;;;;;;;37.20;22.15;;;20.60;99.90;;;;;;5117182;28;20027;-66
2023/08/29 01:49:20;;;;;;;32.92;22.42;;;20.50;99.90;;;;;;5098837;28;20039;-66
2023/08/29 01:51:46;;;;;;;35.95;22.83;;;20.60;99.90;;;;;;5086973;28;20070;-66
2023/08/29 01:54:13;;;;;;;34.70;21.77;;;20.50;99.90;;;;;;5075277;28;20060;-66
2023/08/29 01:56:42;;;;;;;32.90;23.77;;;20.40;99.90;;;;;;5075053;28;20070;-66
2023/08/29 01:59:08;;;;;;;34.72;22.58;;;20.40;99.90;;;;;;5074979;28;20036;-65
2023/08/29 02:01:34;;;;;;;35.15;21.80;;;20.40;99.90;;;;;;5074845;28;20493;-65
2023/08/29 02:04:00;;;;;;;36.90;22.10;;;20.30;99.90;;;;;;5074842;28;20082;-66
2023/08/29 02:06:26;;;;;;;26.77;20.05;;;20.20;99.90;;;;;;5076206;28;20462;-66
2023/08/29 02:08:52;;;;;;;35.83;22.00;;;20.20;99.90;;;;;;5074728;28;20032;-66
2023/08/29 02:11:18;;;;;;;28.80;20.52;;;20.20;99.90;;;;;;5075779;28;20032;-66
2023/08/29 02:13:44;;;;;;;33.58;20.88;;;20.20;99.90;;;;;;5074611;28;20027;-66
2023/08/29 02:16:10;;;;;;;27.58;20.80;;;20.30;99.90;;;;;;5075981;28;20497;-66
2023/08/29 02:18:36;;;;;;;39.65;21.17;;;20.50;99.90;;;;;;5074466;28;20389;-66
2023/08/29 02:21:02;;;;;;;37.75;21.60;;;20.40;99.90;;;;;;5074464;28;20039;-66
2023/08/29 02:23:28;;;;;;;29.02;20.52;;;20.30;99.90;;;;;;5057811;28;20371;-66
2023/08/29 02:26:04;;;;;;;27.15;20.48;;;20.30;99.90;;;;;;5075740;28;20035;-66
2023/08/29 02:28:36;;;;;;;33.20;22.48;;;20.30;99.90;;;;;;5075589;28;20366;-66
2023/08/29 02:31:05;;;;;;;32.05;21.35;;;20.30;99.90;;;;;;5075530;28;20082;-66
2023/08/29 02:33:33;;;;;;;31.70;23.27;;;20.20;99.90;;;;;;5075572;28;20031;-66
2023/08/29 02:35:59;;;;;;;32.38;22.35;;;20.30;99.90;;;;;;5075548;28;20112;-67
2023/08/29 02:38:26;;;;;;;34.40;22.95;;;20.40;99.90;;;;;;5075438;28;20024;-66
2023/08/29 02:40:52;;;;;;;36.22;22.15;;;20.30;99.90;;;;;;5075334;28;20466;-66
2023/08/29 02:43:17;;;;;;;38.30;22.98;;;20.30;99.90;;;;;;5074182;28;20110;-66
2023/08/29 02:45:43;;;;;;;36.17;23.27;;;20.40;99.90;;;;;;5075405;28;20119;-66
2023/08/29 02:48:09;;;;;;;39.25;23.33;;;20.40;99.90;;;;;;5074224;28;20036;-66
2023/08/29 02:50:36;;;;;;;37.90;23.58;;;20.40;99.90;;;;;;5075205;28;20032;-66
2023/08/29 02:53:03;;;;;;;30.63;21.08;;;20.40;99.90;;;;;;5113166;28;20046;-66
2023/08/29 02:55:29;;;;;;;34.72;22.98;;;20.30;99.90;;;;;;5097581;28;20480;-66
2023/08/29 02:57:56;;;;;;;39.55;24.20;;;20.30;99.90;;;;;;5097544;28;20088;-66
2023/08/29 03:00:22;;;;;;;33.72;21.48;;;20.30;99.90;;;;;;5115754;28;20028;-66
2023/08/29 03:02:48;;;;;;;31.15;22.90;;;20.40;99.90;;;;;;5115710;28;20067;-66
2023/08/29 03:05:14;;;;;;;33.88;21.85;;;20.40;99.90;;;;;;5115668;28;20062;-66
2023/08/29 03:07:40;;;;;;;31.58;22.00;;;20.40;99.90;;;;;;5097269;28;20023;-66
2023/08/29 03:10:06;;;;;;;29.73;21.27;;;20.50;99.90;;;;;;5115584;28;20335;-66
2023/08/29 03:12:32;;;;;;;32.22;21.88;;;20.40;99.90;;;;;;5097088;28;20065;-66
2023/08/29 03:14:58;;;;;;;30.08;21.75;;;20.40;99.90;;;;;;5115481;28;20032;-66
2023/08/29 03:17:25;;;;;;;32.97;22.98;;;20.20;99.90;;;;;;5097187;28;20053;-66
2023/08/29 03:19:52;;;;;;;36.33;21.98;;;20.20;99.90;;;;;;5097115;28;20357;-66
2023/08/29 03:22:18;;;;;;;35.45;22.15;;;20.10;99.90;;;;;;5096702;28;20051;-66
2023/08/29 03:24:47;;;;;;;34.35;21.05;;;20.10;99.90;;;;;;5097150;28;20042;-66
2023/08/29 03:27:13;;;;;;;35.40;23.63;;;20.10;99.90;;;;;;5096962;28;20027;-66
2023/08/29 03:29:40;;;;;;;31.55;22.30;;;20.20;99.90;;;;;;5097066;28;20032;-66
2023/08/29 03:32:06;;;;;;;38.10;24.17;;;20.20;99.90;;;;;;5096854;28;20031;-66
2023/08/29 03:34:33;;;;;;;37.20;22.02;;;20.30;99.90;;;;;;5115147;28;20031;-66
2023/08/29 03:36:59;;;;;;;28.25;22.02;;;20.20;99.90;;;;;;5115061;28;20100;-66
2023/08/29 03:39:25;;;;;;;32.28;21.80;;;20.30;99.90;;;;;;5096838;28;20031;-66
2023/08/29 03:41:51;;;;;;;28.40;20.63;;;20.20;99.90;;;;;;5115358;28;20065;-66
2023/08/29 03:44:17;;;;;;;30.20;21.58;;;20.20;99.90;;;;;;5096820;28;20031;-66
2023/08/29 03:46:43;;;;;;;34.60;20.50;;;20.20;99.90;;;;;;5115192;28;20066;-66
2023/08/29 03:49:09;;;;;;;36.05;21.23;;;20.20;99.90;;;;;;5115124;28;20051;-66
2023/08/29 03:51:35;;;;;;;34.95;22.08;;;20.20;99.90;;;;;;5114523;28;20451;-66
2023/08/29 03:54:01;;;;;;;30.38;22.48;;;20.20;99.90;;;;;;5096648;28;20024;-66
2023/08/29 03:56:28;;;;;;;30.00;21.58;;;20.10;99.90;;;;;;5096672;28;20393;-66
2023/08/29 03:58:55;;;;;;;33.80;21.92;;;20.20;99.90;;;;;;5096646;28;20015;-66
2023/08/29 04:01:21;;;;;;;32.38;21.58;;;20.20;99.90;;;;;;5114895;28;20041;-66
2023/08/29 04:03:47;;;;;;;33.72;22.48;;;20.20;99.90;;;;;;5096485;28;20076;-66
2023/08/29 04:06:14;;;;;;;31.33;22.20;;;20.30;99.90;;;;;;5114780;28;20098;-66
2023/08/29 04:08:40;;;;;;;28.42;21.67;;;20.20;99.90;;;;;;5114750;28;20388;-66
2023/08/29 04:11:06;;;;;;;32.05;21.00;;;20.30;99.90;;;;;;5096527;28;20024;-66
2023/08/29 04:13:33;;;;;;;28.30;20.80;;;20.30;99.90;;;;;;5114484;28;20031;-67
2023/08/29 04:16:03;;;;;;;30.92;21.30;;;20.30;99.90;;;;;;5096271;28;20092;-66
2023/08/29 04:18:33;;;;;;;31.70;20.88;;;20.30;99.90;;;;;;5096254;28;20027;-67
2023/08/29 04:20:59;;;;;;;32.10;21.83;;;20.30;99.90;;;;;;5114666;28;20020;-67
2023/08/29 04:23:26;;;;;;;33.58;21.48;;;20.30;99.90;;;;;;5114712;28;20096;-67
2023/08/29 04:25:59;;;;;;;33.35;20.63;;;20.30;99.90;;;;;;5096152;28;20073;-66
2023/08/29 04:28:25;;;;;;;27.77;20.58;;;20.30;99.90;;;;;;5114633;28;20031;-66
2023/08/29 04:30:51;;;;;;;28.80;19.30;;;20.40;99.90;;;;;;5114785;28;20364;-67
2023/08/29 04:33:17;;;;;;;25.10;19.20;;;20.40;99.90;;;;;;5114291;28;20032;-66
2023/08/29 04:35:44;;;;;;;26.75;18.88;;;20.50;99.90;;;;;;5117851;28;20026;-67
2023/08/29 04:38:10;;;;;;;28.27;19.58;;;20.50;99.90;;;;;;5118476;28;20062;-66
2023/08/29 04:40:36;;;;;;;37.15;20.10;;;20.50;99.90;;;;;;5100109;28;20027;-67
2023/08/29 04:43:02;;;;;;;27.80;18.80;;;20.50;99.90;;;;;;5100000;28;20396;-67
2023/08/29 04:45:28;;;;;;;28.73;20.23;;;20.40;99.90;;;;;;5099978;28;20043;-66
2023/08/29 04:47:54;;;;;;;32.83;18.52;;;20.40;99.90;;;;;;5099794;28;20023;-67
2023/08/29 04:50:20;;;;;;;32.88;19.77;;;20.40;99.90;;;;;;5100002;28;20032;-67
2023/08/29 04:52:48;;;;;;;25.48;18.38;;;20.40;99.90;;;;;;5117992;28;20042;-67
2023/08/29 04:55:14;;;;;;;26.38;18.50;;;20.30;99.90;;;;;;5099870;28;20023;-67
2023/08/29 04:57:40;;;;;;;28.42;19.42;;;20.20;99.90;;;;;;5099929;28;20476;-67
2023/08/29 05:00:09;;;;;;;23.00;17.98;;;20.20;99.90;;;;;;5118015;28;20526;-67
2023/08/29 05:02:35;;;;;;;26.17;18.23;;;20.20;99.90;;;;;;5099572;28;20059;-67
2023/08/29 05:05:01;;;;;;;25.90;18.13;;;20.20;99.90;;;;;;5099625;28;20076;-67
2023/08/29 05:07:27;;;;;;;30.65;18.77;;;20.10;99.90;;;;;;5099812;28;20031;-67
2023/08/29 05:09:54;;;;;;;27.92;18.08;;;20.10;99.90;;;;;;5117863;28;20023;-67
2023/08/29 05:12:20;;;;;;;29.70;19.77;;;20.00;99.90;;;;;;5099262;28;20039;-67
2023/08/29 05:14:46;;;;;;;25.98;17.92;;;20.00;99.90;;;;;;5117678;28;20012;-67
2023/08/29 05:17:12;;;;;;;28.15;18.75;;;19.90;99.90;;;;;;5099389;28;20527;-66
2023/08/29 05:19:38;;;;;;;24.88;18.15;;;20.00;99.90;;;;;;5099303;28;20114;-66
2023/08/29 05:22:04;;;;;;;26.38;17.95;;;19.90;99.90;;;;;;5097533;28;20484;-66
2023/08/29 05:24:30;;;;;;;30.52;19.30;;;20.10;99.90;;;;;;5098106;28;20034;-67
2023/08/29 05:26:56;;;;;;;27.55;18.73;;;20.20;99.90;;;;;;5114768;28;20384;-67
2023/08/29 05:29:22;;;;;;;31.65;19.20;;;20.10;99.90;;;;;;5116408;28;20557;-67
2023/08/29 05:31:48;;;;;;;27.65;18.92;;;20.10;99.90;;;;;;5118151;28;20326;-66
2023/08/29 05:34:14;;;;;;;32.72;20.15;;;20.10;99.90;;;;;;5111995;28;20214;-67
2023/08/29 05:36:40;;;;;;;28.83;19.55;;;20.00;99.90;;;;;;5116186;28;20027;-67
2023/08/29 05:39:06;;;;;;;34.70;20.20;;;20.00;99.90;;;;;;5117150;28;20023;-67
2023/08/29 05:41:32;;;;;;;26.33;18.75;;;19.90;99.90;;;;;;5116601;28;20023;-67
2023/08/29 05:43:58;;;;;;;32.55;16.88;;;20.00;99.90;;;;;;5115397;28;20024;-67
2023/08/29 05:46:24;;;;;;;29.45;17.10;;;20.10;99.90;;;;;;5116811;28;20069;-67
2023/08/29 05:48:50;;;;;;;21.95;14.55;;;20.00;99.90;;;;;;5117013;28;20031;-67
2023/08/29 05:51:16;;;;;;;22.35;14.75;;;20.10;99.90;;;;;;5116699;28;20130;-67
2023/08/29 05:54:16;;;;;;;23.60;15.73;;;20.10;99.90;;;;;;5115430;28;20027;-66
2023/08/29 05:56:42;;;;;;;29.87;15.77;;;20.20;99.90;;;;;;5095475;28;20030;-66
2023/08/29 05:59:08;;;;;;;25.15;14.25;;;20.20;99.90;;;;;;5115643;28;20365;-66
2023/08/29 06:01:35;;;;;;;20.38;14.73;;;20.30;99.90;;;;;;5116808;28;20405;-66
2023/08/29 06:04:04;;;;;;;25.95;10.35;;;20.40;99.90;;;;;;5114344;28;20028;-67
2023/08/29 06:06:31;;;;;;;18.95;12.02;;;20.30;99.90;;;;;;5107570;28;20426;-66
2023/08/29 06:08:59;;;;;;;27.75;13.05;;;20.40;99.90;;;;;;5116557;28;20028;-67
2023/08/29 06:11:26;;;;;;;22.45;12.73;;;20.50;99.90;;;;;;5113325;28;20019;-67
2023/08/29 06:13:52;;;;;;;25.35;12.40;;;20.50;99.90;;;;;;5116366;28;20031;-67
2023/08/29 06:16:18;;;;;;;21.88;11.85;;;20.50;99.90;;;;;;5116590;28;20024;-67
2023/08/29 06:18:44;;;;;;;18.83;11.30;;;20.50;99.90;;;;;;5116568;28;20030;-67
2023/08/29 06:21:09;;;;;;;19.20;13.27;;;20.60;99.90;;;;;;5107333;28;20036;-67
2023/08/29 06:23:35;;;;;;;20.50;13.10;;;20.70;99.90;;;;;;5109971;28;20024;-67
2023/08/29 06:26:02;;;;;;;19.42;10.88;;;20.80;99.90;;;;;;5115815;28;20035;-67
2023/08/29 06:28:29;;;;;;;23.83;12.55;;;20.80;99.90;;;;;;5116145;28;20376;-67
2023/08/29 06:30:55;;;;;;;18.70;11.88;;;20.80;99.90;;;;;;5097888;28;20032;-67
2023/08/29 06:33:21;;;;;;;21.15;11.90;;;20.90;99.90;;;;;;5116020;28;20080;-67
2023/08/29 06:35:47;;;;;;;17.27;11.85;;;21.00;99.90;;;;;;5116151;28;20049;-67
2023/08/29 06:38:13;;;;;;;20.45;12.13;;;21.20;99.90;;;;;;5115839;28;20443;-67
2023/08/29 06:40:39;;;;;;;19.13;12.93;;;21.20;99.90;;;;;;5113656;28;20027;-67
2023/08/29 06:43:04;;;;;;;21.65;13.63;;;21.40;99.90;;;;;;5115875;28;20031;-67
2023/08/29 06:45:30;;;;;;;16.58;11.55;;;21.60;99.90;;;;;;5115721;28;20078;-67
2023/08/29 06:47:56;;;;;;;29.13;13.45;;;21.80;99.90;;;;;;5115960;28;20361;-67
2023/08/29 06:50:22;;;;;;;21.15;13.00;;;22.00;99.90;;;;;;5110348;28;20024;-67
2023/08/29 06:52:48;;;;;;;24.65;14.77;;;22.10;99.90;;;;;;5109953;28;20140;-67
2023/08/29 06:55:14;;;;;;;34.85;18.55;;;22.30;99.90;;;;;;5115664;28;20024;-67
2023/08/29 06:57:40;;;;;;;41.65;21.05;;;22.50;99.90;;;;;;5115176;28;20024;-68
2023/08/29 07:00:06;;;;;;;36.20;19.88;;;22.60;99.90;;;;;;5115316;28;20019;-67
2023/08/29 07:02:32;;;;;;;33.40;16.98;;;22.80;99.90;;;;;;5115206;28;20027;-68
2023/08/29 07:05:02;;;;;;;34.38;16.45;;;22.90;99.90;;;;;;5113030;28;20027;-68
2023/08/29 07:07:28;;;;;;;29.92;16.23;;;23.00;99.90;;;;;;5115015;28;20088;-67
2023/08/29 07:09:54;;;;;;;22.48;14.00;;;23.20;99.90;;;;;;5116006;28;20080;-67
2023/08/29 07:12:20;;;;;;;29.65;13.85;;;23.30;99.90;;;;;;5115875;28;20039;-67
2023/08/29 07:14:46;;;;;;;28.95;13.90;;;23.50;99.90;;;;;;5115248;28;20099;-67
2023/08/29 07:17:12;;;;;;;25.75;13.50;;;23.70;99.90;;;;;;5114991;28;20058;-68
2023/08/29 07:19:38;;;;;;;20.17;12.75;;;23.90;99.90;;;;;;5115435;28;20032;-68
2023/08/29 07:22:04;;;;;;;22.13;11.82;;;24.10;99.90;;;;;;5115097;28;20028;-68
2023/08/29 07:24:30;;;;;;;24.83;12.07;;;24.40;99.90;;;;;;5105287;28;20102;-68
2023/08/29 07:26:56;;;;;;;17.83;9.95;;;24.70;99.90;;;;;;5111688;28;20023;-68
2023/08/29 07:29:22;;;;;;;23.05;9.88;;;25.00;99.90;;;;;;5115017;28;20449;-68
2023/08/29 07:31:48;;;;;;;17.42;8.70;;;25.00;98.80;;;;;;5111787;28;20038;-68
2023/08/29 07:34:15;;;;;;;13.93;7.82;;;25.20;95.00;;;;;;5111595;28;20028;-67
2023/08/29 07:36:42;;;;;;;16.33;8.70;;;25.50;97.10;;;;;;5105206;28;20024;-58
2023/08/29 07:39:08;;;;;;;14.73;8.57;;;25.60;94.90;;;;;;5114959;28;20023;-57
2023/08/29 07:41:34;;;;;;;11.57;6.45;;;25.80;95.50;;;;;;5116881;27;20331;-58
2023/08/29 07:43:59;;;;;;;11.60;7.00;;;25.60;91.60;;;;;;5115192;28;20763;-58
2023/08/29 07:46:25;;;;;;;13.45;7.05;;;25.90;92.10;;;;;;5115714;28;20038;-58
2023/08/29 07:48:51;;;;;;;12.70;6.00;;;26.00;90.70;;;;;;5114691;28;20015;-58
2023/08/29 07:51:17;;;;;;;11.65;6.25;;;25.90;86.40;;;;;;5115395;28;20032;-58
2023/08/29 07:53:43;;;;;;;13.98;6.22;;;26.20;91.30;;;;;;5115378;28;20043;-58
2023/08/29 07:56:09;;;;;;;15.68;6.40;;;26.20;84.30;;;;;;5115387;28;20085;-58
2023/08/29 07:58:35;;;;;;;13.32;5.82;;;26.60;91.00;;;;;;5113785;28;20026;-58
2023/08/29 08:01:02;;;;;;;8.90;5.18;;;26.90;91.00;;;;;;5115622;28;20024;-58
2023/08/29 08:03:28;;;;;;;11.00;5.50;;;27.00;89.30;;;;;;5111824;28;20062;-58
2023/08/29 08:05:55;;;;;;;11.35;5.80;;;27.30;84.30;;;;;;5113659;28;20119;-58
2023/08/29 08:08:21;;;;;;;14.82;6.38;;;27.30;80.20;;;;;;5097688;28;20469;-58
2023/08/29 08:10:46;;;;;;;13.48;7.05;;;27.60;80.70;;;;;;5117891;28;20085;-58
2023/08/29 08:13:13;;;;;;;9.65;5.72;;;27.80;82.00;;;;;;5117797;28;20020;-58
2023/08/29 08:15:39;;;;;;;13.80;5.80;;;27.80;76.10;;;;;;5118867;28;20047;-58
2023/08/29 08:18:04;;;;;;;12.82;5.22;;;27.40;71.40;;;;;;5115718;28;20082;-58
2023/08/29 08:20:30;;;;;;;8.68;5.50;;;28.10;75.80;;;;;;5118603;28;20051;-58
2023/08/29 08:22:56;;;;;;;10.55;5.80;;;27.70;74.60;;;;;;5118339;28;20035;-58
2023/08/29 08:25:22;;;;;;;12.20;5.47;;;28.50;70.40;;;;;;5118332;28;20055;-58
2023/08/29 08:27:48;;;;;;;10.85;4.75;;;28.80;69.10;;;;;;5118070;28;20523;-59
2023/08/29 08:30:14;;;;;;;12.02;5.28;;;29.10;65.10;;;;;;5112433;28;20028;-59
2023/08/29 08:32:40;;;;;;;9.38;4.45;;;29.10;62.30;;;;;;5116147;28;20120;-59
2023/08/29 08:35:06;;;;;;;7.05;4.50;;;29.30;59.80;;;;;;5118131;28;20073;-59
2023/08/29 08:37:33;;;;;;;6.57;4.28;;;29.80;60.00;;;;;;5118345;28;20081;-59
2023/08/29 08:40:00;;;;;;;8.65;4.55;;;30.10;57.00;;;;;;5118368;28;20027;-59
2023/08/29 08:42:29;;;;;;;12.55;4.53;;;30.30;56.80;;;;;;5117836;28;20031;-59
2023/08/29 08:44:56;;;;;;;11.80;5.53;;;29.70;56.00;;;;;;5118084;28;20405;-59
2023/08/29 08:47:22;;;;;;;9.38;4.25;;;30.10;54.50;;;;;;5117560;28;20027;-59
2023/08/29 08:49:48;;;;;;;8.73;3.78;;;30.20;52.50;;;;;;5115745;28;20119;-59
2023/08/29 08:52:15;;;;;;;15.30;5.65;;;29.90;51.40;;;;;;5107260;28;20083;-59
2023/08/29 08:54:41;;;;;;;8.73;4.20;;;30.10;51.50;;;;;;5117058;28;20028;-59
2023/08/29 08:57:07;;;;;;;7.32;3.85;;;30.40;50.00;;;;;;5117825;28;20039;-59
2023/08/29 08:59:33;;;;;;;7.60;3.47;;;30.50;50.80;;;;;;5117879;28;20024;-59
2023/08/29 09:01:59;;;;;;;5.75;3.88;;;30.80;45.90;;;;;;5116081;28;20019;-59
2023/08/29 09:04:26;;;;;;;5.95;3.90;;;29.60;47.40;;;;;;5117739;28;20031;-59
2023/08/29 09:06:52;;;;;;;10.27;3.88;;;30.20;53.20;;;;;;5115261;28;20039;-59
2023/08/29 09:09:20;;;;;;;8.82;3.58;;;31.10;54.10;;;;;;5117697;28;20028;-59
2023/08/29 09:11:53;;;;;;;6.28;3.30;;;32.10;50.00;;;;;;5117412;28;20099;-58
2023/08/29 09:14:20;;;;;;;9.38;4.13;;;32.30;46.40;;;;;;5117619;28;20020;-59
2023/08/29 09:16:46;;;;;;;9.80;3.85;;;32.10;42.30;;;;;;5117659;28;20035;-59
2023/08/29 09:19:16;;;;;;;5.95;3.33;;;31.80;42.70;;;;;;5117377;28;20045;-59
2023/08/29 09:21:43;;;;;;;7.75;3.88;;;31.80;44.00;;;;;;5116109;28;20492;-59
2023/08/29 09:24:12;;;;;;;8.68;3.75;;;32.30;43.60;;;;;;5116563;28;20023;-59
2023/08/29 09:26:41;;;;;;;9.95;4.38;;;32.40;40.50;;;;;;5115166;28;20019;-59
2023/08/29 09:29:18;;;;;;;7.65;3.78;;;32.20;41.30;;;;;;5109791;28;20484;-59
2023/08/29 09:31:46;;;;;;;7.30;3.60;;;32.60;44.20;;;;;;5114610;28;20030;-59
2023/08/29 09:34:25;;;;;;;4.40;2.60;;;33.00;38.50;;;;;;5116994;28;20135;-59
2023/08/29 09:36:52;;;;;;;8.95;3.42;;;32.90;36.20;;;;;;5117044;28;20059;-59
2023/08/29 09:39:19;;;;;;;4.85;2.75;;;33.00;33.90;;;;;;5117186;28;20024;-59
2023/08/29 09:41:59;;;;;;;7.05;2.97;;;32.70;35.90;;;;;;5117042;28;20055;-59
2023/08/29 09:44:25;;;;;;;6.13;3.05;;;32.80;39.10;;;;;;5117096;28;20073;-59
2023/08/29 09:46:51;;;;;;;8.77;2.90;;;32.90;34.00;;;;;;5114447;28;20027;-59
2023/08/29 09:49:17;;;;;;;11.40;3.63;;;32.60;34.20;;;;;;5116854;28;20028;-59
2023/08/29 09:51:44;;;;;;;5.55;2.53;;;33.00;32.30;;;;;;5114800;28;20078;-59
2023/08/29 09:54:18;;;;;;;10.98;3.70;;;33.10;36.90;;;;;;5116156;28;20440;-59
2023/08/29 09:56:47;;;;;;;12.73;3.25;;;33.30;33.60;;;;;;5116739;28;20028;-59
2023/08/29 09:59:17;;;;;;;5.38;2.67;;;33.40;32.60;;;;;;5111524;28;20032;-59
2023/08/29 10:01:45;;;;;;;6.65;2.10;;;33.20;29.50;;;;;;5109655;28;20023;-59
2023/08/29 10:04:14;;;;;;;4.80;2.13;;;33.20;28.90;;;;;;5114686;28;20028;-59
2023/08/29 10:06:42;;;;;;;5.38;2.25;;;33.40;27.80;;;;;;5102833;28;20107;-59
2023/08/29 10:09:21;;;;;;;5.72;2.30;;;32.60;28.40;;;;;;5078313;28;20036;-59
2023/08/29 10:11:51;;;;;;;12.40;2.77;;;32.30;31.60;;;;;;5102462;28;20130;-59
2023/08/29 10:14:19;;;;;;;9.38;2.92;;;32.90;30.50;;;;;;5096003;28;20024;-58
2023/08/29 10:16:46;;;;;;;6.75;2.40;;;33.10;28.00;;;;;;5101591;28;20034;-59
2023/08/29 10:19:14;;;;;;;7.78;1.88;;;33.10;27.80;;;;;;5111994;28;20027;-59
2023/08/29 10:21:42;;;;;;;6.25;2.05;;;33.10;27.50;;;;;;5097695;28;20155;-59
2023/08/29 10:24:11;;;;;;;8.55;2.17;;;33.00;27.30;;;;;;5116053;28;20051;-59
2023/08/29 10:26:38;;;;;;;5.00;2.20;;;33.10;27.40;;;;;;5113530;28;20051;-58
2023/08/29 10:29:08;;;;;;;8.45;2.30;;;33.30;28.80;;;;;;5103566;28;20519;-59
2023/08/29 10:31:40;;;;;;;5.93;2.17;;;32.50;26.30;;;;;;5105542;28;20030;-59
2023/08/29 10:34:06;;;;;;;9.18;2.35;;;33.00;26.10;;;;;;5114439;28;20024;-59
2023/08/29 10:36:32;;;;;;;6.13;1.85;;;32.50;27.10;;;;;;5113683;28;20032;-59
2023/08/29 10:38:59;;;;;;;4.18;1.40;;;33.00;27.70;;;;;;5115934;28;20032;-59
2023/08/29 10:41:25;;;;;;;4.18;1.83;;;32.80;25.80;;;;;;5114926;28;20027;-59
2023/08/29 10:44:23;;;;;;;4.45;1.60;;;32.60;25.90;;;;;;5116718;28;20133;-59
2023/08/29 10:46:52;;;;;;;8.73;1.55;;;32.70;24.80;;;;;;5116362;28;20028;-59
2023/08/29 10:49:20;;;;;;;8.05;2.00;;;33.00;24.70;;;;;;5114561;28;20380;-59
2023/08/29 10:52:09;;;;;;;8.85;2.83;;;32.90;23.70;;;;;;5115661;28;20086;-73
2023/08/29 10:54:35;;;;;;;5.25;2.00;;;32.70;25.10;;;;;;5114173;28;20020;-72
2023/08/29 10:57:01;;;;;;;7.38;2.38;;;32.50;24.80;;;;;;5115847;28;20483;-72
2023/08/29 10:59:36;;;;;;;7.05;2.13;;;32.00;25.90;;;;;;5097436;28;20023;-73
2023/08/29 11:02:21;;;;;;;6.53;2.10;;;32.10;25.80;;;;;;5115430;28;20024;-72
2023/08/29 11:04:51;;;;;;;4.65;1.95;;;32.00;26.20;;;;;;5107396;28;20036;-73
2023/08/29 11:07:25;;;;;;;2.67;1.30;;;32.10;27.20;;;;;;5103147;28;20481;-72
2023/08/29 11:10:22;;;;;;;6.88;1.85;;;32.00;26.30;;;;;;5094779;28;20027;-70
2023/08/29 11:13:07;;;;;;;6.90;2.17;;;31.70;27.20;;;;;;5094694;28;20032;-70
2023/08/29 11:16:06;;;;;;;8.55;2.40;;;31.90;28.70;;;;;;5094899;28;20016;-73
2023/08/29 11:18:32;;;;;;;9.45;1.85;;;32.50;24.90;;;;;;5079389;28;20457;-71
2023/08/29 11:21:09;;;;;;;2.95;1.17;;;31.90;23.60;;;;;;5111901;28;20023;-72
2023/08/29 11:23:40;;;;;;;2.17;1.00;;;32.00;22.40;;;;;;5115182;28;20385;-71
2023/08/29 11:26:08;;;;;;;4.05;1.25;;;31.80;21.40;;;;;;5115084;28;20034;-71
2023/08/29 11:28:42;;;;;;;23.98;2.47;;;31.60;21.80;;;;;;5115227;28;20458;-72
2023/08/29 11:31:09;;;;;;;5.30;1.30;;;31.40;20.50;;;;;;5112935;28;20479;-71
2023/08/29 11:33:39;;;;;;;4.53;1.30;;;31.00;20.60;;;;;;5108858;28;20031;-71
2023/08/29 11:36:07;;;;;;;4.88;1.40;;;30.90;21.90;;;;;;5113183;28;20032;-71
2023/08/29 11:38:33;;;;;;;5.15;1.10;;;30.70;22.60;;;;;;5113698;28;20477;-70
2023/08/29 11:41:04;;;;;;;3.28;1.10;;;30.70;21.50;;;;;;5114579;28;20016;-72
2023/08/29 11:43:34;;;;;;;6.57;1.25;;;30.20;22.70;;;;;;5114610;28;20055;-71
2023/08/29 11:46:02;;;;;;;8.30;1.58;;;30.50;22.20;;;;;;5096565;28;20060;-72
2023/08/29 11:48:30;;;;;;;4.75;1.40;;;30.80;22.80;;;;;;5114551;28;20015;-70
2023/08/29 11:50:59;;;;;;;8.43;1.70;;;31.00;22.00;;;;;;5114214;28;20031;-72
2023/08/29 11:53:34;;;;;;;8.07;1.27;;;31.10;22.60;;;;;;5107860;28;20488;-73
2023/08/29 11:56:02;;;;;;;3.63;1.30;;;31.60;22.40;;;;;;5109534;28;20038;-71
2023/08/29 11:58:31;;;;;;;5.15;1.25;;;31.80;21.50;;;;;;5115024;28;20023;-72
2023/08/29 12:01:01;;;;;;;3.15;1.10;;;32.40;22.50;;;;;;5114446;28;20032;-70
2023/08/29 12:03:27;;;;;;;;;;;32.80;21.90;;;;;;5113321;28;20089;-71
2023/08/29 12:05:57;;;;;;;3.83;1.50;;;32.40;21.00;;;;;;5114546;28;20319;-72
2023/08/29 12:08:43;;;;;;;6.25;1.55;;;32.70;21.30;;;;;;5112938;28;20031;-71
2023/08/29 12:11:12;;;;;;;4.80;1.00;;;33.10;21.70;;;;;;5111927;28;20036;-71
2023/08/29 12:13:42;;;;;;;5.15;1.10;;;33.40;21.30;;;;;;5114355;28;20030;-71
2023/08/29 12:16:16;;;;;;;1.95;1.25;;;34.00;22.00;;;;;;5113123;28;20416;-71
2023/08/29 12:18:42;;;;;;;4.85;1.50;;;33.90;19.90;;;;;;5107588;28;20055;-70
2023/08/29 12:21:11;;;;;;;3.83;1.35;;;33.80;19.00;;;;;;5113185;28;20048;-71
2023/08/29 12:23:37;;;;;;;3.20;1.10;;;33.20;20.40;;;;;;5099867;28;20032;-70
2023/08/29 12:26:03;;;;;;;2.45;0.95;;;33.30;19.00;;;;;;5114015;28;20453;-72
2023/08/29 12:28:29;;;;;;;2.78;1.00;;;33.20;19.70;;;;;;5109783;28;20028;-72
2023/08/29 12:30:56;;;;;;;2.50;1.40;;;32.40;19.30;;;;;;5103929;28;20400;-72
2023/08/29 12:33:24;;;;;;;3.78;1.20;;;32.80;19.00;;;;;;5096002;28;20030;-73
2023/08/29 12:35:50;;;;;;;4.90;1.30;;;33.00;18.80;;;;;;5103545;28;20028;-71